Germfask, Michigan
Current Conditions -  °F | °C
As of 12:54 PM on Friday 31 Oct 2014 (Local Time) from KISQ Reporting Station
Broken Clouds Broken Clouds  
Wind Chill: 23°   Ceiling: 3400
Heat Index: 35°   Visibility: 10mi
Dew Point: 23°   Wind: 22mph
Humidity: 63%   Direction: 10°N
Pressure: 30.29"   Gusts: 31mph
Location:  46.25°N, 85.93°W
Report Text: KISQ 311654Z AUTO 01019G27KT 10SM BKN034 BKN039 02/M05 A3029 RMK AO2 T00151049
Loading
Personal Weather Stations






























Interactive Weather Map
Tropical Storm Tracking
New forecast layout! Learn more

10-Day Weather Forecast

Advertisements
Track Severe Weather on mobile